createdAt,value
2022-08-28T00:00:56.757Z,0.00
2022-08-28T00:01:56.748Z,0.00
2022-08-28T00:02:56.812Z,0.00
2022-08-28T00:03:56.721Z,0.00
2022-08-28T00:04:56.792Z,0.00
2022-08-28T00:05:56.750Z,0.00
2022-08-28T00:06:56.701Z,0.00
2022-08-28T00:07:56.771Z,0.00
2022-08-28T00:08:56.695Z,0.00
2022-08-28T00:09:56.692Z,0.00
2022-08-28T00:10:56.678Z,0.00
2022-08-28T00:11:56.702Z,0.00
2022-08-28T00:12:56.673Z,0.00
2022-08-28T00:13:56.785Z,0.00
2022-08-28T00:14:56.665Z,0.00
2022-08-28T00:15:56.674Z,0.00
2022-08-28T00:16:56.646Z,0.00
2022-08-28T00:17:56.641Z,0.00
2022-08-28T00:18:56.619Z,0.00
2022-08-28T00:19:56.638Z,0.00
2022-08-28T00:20:56.639Z,0.00
2022-08-28T00:21:56.658Z,0.00
2022-08-28T00:22:56.713Z,0.00
2022-08-28T00:23:56.635Z,0.00
2022-08-28T00:24:56.596Z,0.00
2022-08-28T00:25:56.608Z,0.00
2022-08-28T00:26:56.598Z,0.00
2022-08-28T00:27:56.628Z,0.00
2022-08-28T00:28:56.583Z,0.00
2022-08-28T00:29:56.570Z,0.00
2022-08-28T00:30:56.656Z,0.00
2022-08-28T00:31:56.569Z,0.00
2022-08-28T00:32:56.542Z,0.00
2022-08-28T00:33:56.593Z,0.00
2022-08-28T00:34:56.551Z,0.00
2022-08-28T00:35:56.533Z,0.00
2022-08-28T00:36:56.533Z,0.00
2022-08-28T00:37:56.533Z,0.00
2022-08-28T00:38:56.548Z,0.00
2022-08-28T00:39:56.538Z,0.00
2022-08-28T00:40:56.534Z,0.00
2022-08-28T00:41:57.168Z,0.00
2022-08-28T00:42:56.511Z,0.00
2022-08-28T00:43:56.484Z,0.00
2022-08-28T00:44:57.596Z,0.00
2022-08-28T00:45:56.491Z,0.00
2022-08-28T00:46:56.483Z,0.00
2022-08-28T00:47:56.501Z,0.00
2022-08-28T00:48:56.462Z,0.00
2022-08-28T00:49:56.465Z,0.00
2022-08-28T00:50:59.077Z,0.00
2022-08-28T00:51:56.434Z,0.00
2022-08-28T00:52:56.434Z,0.00
2022-08-28T00:53:58.795Z,0.00
2022-08-28T00:54:59.730Z,0.00
2022-08-28T00:55:56.542Z,0.00
2022-08-28T00:56:56.410Z,0.00
2022-08-28T00:57:56.414Z,0.00
2022-08-28T00:58:56.407Z,0.00
2022-08-28T00:59:56.414Z,0.00
2022-08-28T01:00:56.386Z,0.00
2022-08-28T01:01:57.542Z,0.00
2022-08-28T01:02:56.417Z,0.00
2022-08-28T01:03:56.371Z,0.00
2022-08-28T01:04:56.351Z,0.00
2022-08-28T01:05:56.365Z,0.00
2022-08-28T01:06:56.359Z,0.00
2022-08-28T01:07:56.393Z,0.00
2022-08-28T01:08:56.340Z,0.00
2022-08-28T01:09:56.333Z,0.00
2022-08-28T01:10:56.348Z,0.00
2022-08-28T01:11:56.324Z,0.00
2022-08-28T01:12:56.440Z,0.00
2022-08-28T01:13:56.317Z,0.00
2022-08-28T01:14:56.304Z,0.00
2022-08-28T01:15:56.362Z,0.00
2022-08-28T01:16:56.304Z,0.00
2022-08-28T01:17:56.294Z,0.00
2022-08-28T01:18:56.299Z,0.00
2022-08-28T01:19:57.292Z,0.00
2022-08-28T01:20:56.280Z,0.00
2022-08-28T01:21:56.259Z,0.00
2022-08-28T01:22:56.280Z,0.00
2022-08-28T01:23:56.278Z,0.00
2022-08-28T01:24:56.267Z,0.00
2022-08-28T01:25:56.275Z,0.00
2022-08-28T01:26:56.244Z,0.00
2022-08-28T01:27:56.241Z,0.00
2022-08-28T01:28:56.231Z,0.00
2022-08-28T01:29:56.348Z,0.00
2022-08-28T01:30:56.300Z,0.00
2022-08-28T01:31:56.272Z,0.00
2022-08-28T01:32:56.222Z,0.00
2022-08-28T01:33:56.211Z,0.00
2022-08-28T01:34:56.316Z,0.00
2022-08-28T01:35:56.237Z,0.00
2022-08-28T01:36:56.188Z,0.00
2022-08-28T01:37:56.187Z,0.00
2022-08-28T01:38:56.186Z,0.00
2022-08-28T01:39:56.200Z,0.00
2022-08-28T01:40:56.204Z,0.00
2022-08-28T01:41:56.223Z,0.00
2022-08-28T01:42:56.151Z,0.00
2022-08-28T01:43:56.146Z,0.00
2022-08-28T01:44:56.145Z,0.00
2022-08-28T01:45:56.324Z,0.00
2022-08-28T01:46:56.124Z,0.00
2022-08-28T01:47:56.114Z,0.00
2022-08-28T01:48:56.118Z,0.00
2022-08-28T01:49:56.126Z,0.00
2022-08-28T01:50:56.124Z,0.00
2022-08-28T01:51:56.134Z,0.00
2022-08-28T01:52:56.094Z,0.00
2022-08-28T01:53:56.082Z,0.00
2022-08-28T01:54:56.078Z,0.00
2022-08-28T01:55:56.096Z,0.00
2022-08-28T01:56:56.133Z,0.00
2022-08-28T01:57:56.058Z,0.00
2022-08-28T01:58:56.069Z,0.00
2022-08-28T01:59:56.073Z,0.00
2022-08-28T02:00:56.031Z,0.00
2022-08-28T02:01:56.086Z,0.00
2022-08-28T02:02:56.150Z,0.00
2022-08-28T02:03:56.111Z,0.00
2022-08-28T02:04:56.024Z,0.00
2022-08-28T02:05:56.012Z,0.00
2022-08-28T02:06:56.017Z,0.00
2022-08-28T02:07:56.129Z,0.00
2022-08-28T02:08:56.010Z,0.00
2022-08-28T02:09:56.735Z,0.00
2022-08-28T02:10:55.997Z,0.00
2022-08-28T02:11:56.002Z,0.00
2022-08-28T02:12:55.972Z,0.00
2022-08-28T02:13:56.325Z,0.00
2022-08-28T02:14:55.974Z,0.00
2022-08-28T02:15:56.026Z,0.00
2022-08-28T02:16:55.954Z,0.00
2022-08-28T02:17:55.933Z,0.00
2022-08-28T02:18:55.972Z,0.00
2022-08-28T02:19:55.942Z,0.00
2022-08-28T02:20:55.915Z,0.00
2022-08-28T02:21:55.915Z,0.00
2022-08-28T02:22:55.922Z,0.00
2022-08-28T02:23:55.915Z,0.00
2022-08-28T02:24:55.915Z,0.00
2022-08-28T02:25:55.915Z,0.00
2022-08-28T02:26:55.898Z,0.00
2022-08-28T02:27:55.879Z,0.00
2022-08-28T02:28:55.866Z,0.00
2022-08-28T02:29:55.983Z,0.00
2022-08-28T02:30:55.906Z,0.00
2022-08-28T02:31:55.875Z,0.00
2022-08-28T02:32:55.858Z,0.00
2022-08-28T02:33:55.902Z,0.00
2022-08-28T02:34:55.851Z,0.00
2022-08-28T02:35:55.849Z,0.00
2022-08-28T02:36:56.739Z,0.00
2022-08-28T02:37:55.830Z,0.00
2022-08-28T02:38:57.916Z,0.00
2022-08-28T02:39:56.906Z,0.00
2022-08-28T02:40:55.845Z,0.00
2022-08-28T02:41:55.801Z,0.00
2022-08-28T02:42:55.801Z,0.00
2022-08-28T02:43:55.791Z,0.00
2022-08-28T02:44:55.784Z,0.00
2022-08-28T02:45:55.840Z,0.00
2022-08-28T02:46:55.876Z,0.00
2022-08-28T02:47:55.773Z,0.00
2022-08-28T02:48:55.768Z,0.00
2022-08-28T02:49:55.765Z,0.00
2022-08-28T02:50:55.759Z,0.00
2022-08-28T02:51:55.776Z,0.00
2022-08-28T02:52:55.734Z,0.00
2022-08-28T02:53:55.739Z,0.00
2022-08-28T02:54:55.730Z,0.00
2022-08-28T02:55:55.725Z,0.00
2022-08-28T02:56:55.722Z,0.00
2022-08-28T02:57:55.810Z,0.00
2022-08-28T02:58:55.714Z,0.00
2022-08-28T02:59:55.702Z,0.00
2022-08-28T03:00:55.765Z,0.00
2022-08-28T03:01:55.685Z,0.00
2022-08-28T03:02:55.744Z,0.00
2022-08-28T03:03:55.663Z,0.00
2022-08-28T03:04:55.666Z,0.00
2022-08-28T03:05:55.656Z,0.00
2022-08-28T03:06:55.668Z,0.00
2022-08-28T03:07:55.644Z,0.00
2022-08-28T03:08:55.654Z,0.00
2022-08-28T03:09:55.641Z,0.00
2022-08-28T03:10:55.635Z,0.00
2022-08-28T03:11:55.616Z,0.00
2022-08-28T03:12:55.604Z,0.00
2022-08-28T03:13:55.641Z,0.00
2022-08-28T03:14:55.602Z,0.00
2022-08-28T03:15:56.054Z,0.00
2022-08-28T03:16:55.638Z,0.00
2022-08-28T03:17:55.610Z,0.00
2022-08-28T03:18:55.580Z,0.00
2022-08-28T03:19:55.598Z,0.00
2022-08-28T03:20:55.602Z,0.00
2022-08-28T03:21:55.560Z,0.00
2022-08-28T03:22:55.561Z,0.00
2022-08-28T03:23:55.542Z,0.00
2022-08-28T03:24:55.573Z,0.00
2022-08-28T03:25:55.542Z,0.00
2022-08-28T03:26:55.548Z,0.00
2022-08-28T03:27:55.556Z,0.00
2022-08-28T03:28:55.536Z,0.00
2022-08-28T03:29:55.516Z,0.00
2022-08-28T03:30:55.642Z,0.00
2022-08-28T03:31:55.517Z,0.00
2022-08-28T03:32:55.505Z,0.00
2022-08-28T03:33:58.259Z,0.00
2022-08-28T03:34:55.504Z,0.00
2022-08-28T03:35:55.532Z,0.00
2022-08-28T03:36:55.481Z,0.00
2022-08-28T03:37:55.475Z,0.00
2022-08-28T03:38:55.474Z,0.00
2022-08-28T03:39:55.481Z,0.00
2022-08-28T03:40:55.463Z,0.00
2022-08-28T03:41:55.477Z,0.00
2022-08-28T03:42:55.458Z,0.00
2022-08-28T03:43:55.458Z,0.00
2022-08-28T03:44:55.440Z,0.00
2022-08-28T03:45:55.477Z,0.00
2022-08-28T03:46:55.548Z,0.00
2022-08-28T03:47:55.432Z,0.00
2022-08-28T03:48:55.425Z,0.00
2022-08-28T03:49:55.436Z,0.00
2022-08-28T03:50:55.425Z,0.00
2022-08-28T03:51:55.399Z,0.00
2022-08-28T03:52:55.509Z,0.00
2022-08-28T03:53:55.405Z,0.00
2022-08-28T03:54:55.381Z,0.00
2022-08-28T03:55:55.372Z,0.00
2022-08-28T03:56:55.364Z,0.00
2022-08-28T03:57:55.411Z,0.00
2022-08-28T03:58:55.356Z,0.00
2022-08-28T03:59:55.349Z,0.00
2022-08-28T04:00:55.394Z,0.00
2022-08-28T04:01:55.356Z,0.00
2022-08-28T04:02:55.391Z,0.00
2022-08-28T04:03:55.397Z,0.00
2022-08-28T04:04:55.342Z,4.00
2022-08-28T04:05:55.333Z,4.00
2022-08-28T04:06:55.324Z,4.00
2022-08-28T04:07:55.319Z,4.00
2022-08-28T04:08:55.441Z,4.00
2022-08-28T04:09:55.309Z,4.00
2022-08-28T04:10:55.290Z,8.00
2022-08-28T04:11:55.281Z,8.00
2022-08-28T04:12:55.281Z,8.00
2022-08-28T04:13:55.267Z,12.00
2022-08-28T04:14:55.293Z,12.00
2022-08-28T04:15:55.265Z,16.00
2022-08-28T04:16:58.568Z,20.00
2022-08-28T04:17:57.249Z,20.00
2022-08-28T04:18:55.260Z,24.00
2022-08-28T04:19:55.339Z,28.00
2022-08-28T04:20:55.354Z,28.00
2022-08-28T04:21:55.229Z,32.00
2022-08-28T04:22:55.391Z,36.00
2022-08-28T04:23:55.219Z,44.00
2022-08-28T04:24:55.210Z,48.00
2022-08-28T04:25:55.249Z,56.00
2022-08-28T04:26:55.194Z,64.00
2022-08-28T04:27:55.203Z,72.00
2022-08-28T04:28:55.227Z,84.00
2022-08-28T04:29:55.194Z,96.00
2022-08-28T04:30:55.200Z,112.00
2022-08-28T04:31:55.255Z,124.00
2022-08-28T04:32:55.192Z,140.00
2022-08-28T04:33:55.156Z,148.00
2022-08-28T04:34:55.144Z,164.00
2022-08-28T04:35:55.137Z,180.00
2022-08-28T04:36:55.258Z,192.00
2022-08-28T04:37:58.720Z,208.00
2022-08-28T04:38:55.137Z,220.00
2022-08-28T04:39:55.153Z,240.00
2022-08-28T04:40:55.126Z,256.00
2022-08-28T04:41:55.141Z,276.00
2022-08-28T04:42:55.124Z,292.00
2022-08-28T04:43:55.097Z,316.00
2022-08-28T04:44:55.106Z,336.00
2022-08-28T04:45:55.168Z,364.00
2022-08-28T04:46:55.090Z,392.00
2022-08-28T04:47:55.107Z,424.00
2022-08-28T04:48:55.068Z,448.00
2022-08-28T04:49:55.079Z,476.00
2022-08-28T04:50:55.117Z,500.00
2022-08-28T04:51:55.054Z,528.00
2022-08-28T04:52:55.081Z,560.00
2022-08-28T04:53:55.053Z,596.00
2022-08-28T04:54:55.050Z,632.00
2022-08-28T04:55:55.429Z,660.00
2022-08-28T04:56:55.021Z,684.00
2022-08-28T04:57:55.024Z,708.00
2022-08-28T04:58:55.060Z,740.00
2022-08-28T04:59:55.014Z,772.00
2022-08-28T05:00:55.163Z,808.00
2022-08-28T05:01:55.061Z,832.00
2022-08-28T05:02:54.993Z,856.00
2022-08-28T05:03:55.095Z,880.00
2022-08-28T05:04:54.996Z,904.00
2022-08-28T05:05:54.972Z,928.00
2022-08-28T05:06:54.965Z,948.00
2022-08-28T05:07:54.981Z,980.00
2022-08-28T05:08:54.958Z,1012.00
2022-08-28T05:09:54.990Z,1040.00
2022-08-28T05:10:54.974Z,1072.00
2022-08-28T05:11:54.947Z,1092.00
2022-08-28T05:12:54.940Z,1112.00
2022-08-28T05:13:54.977Z,1140.00
2022-08-28T05:14:54.948Z,1168.00
2022-08-28T05:15:54.959Z,1204.00
2022-08-28T05:16:54.919Z,1244.00
2022-08-28T05:17:54.949Z,1284.00
2022-08-28T05:18:54.916Z,1324.00
2022-08-28T05:19:54.896Z,1352.00
2022-08-28T05:20:54.912Z,1380.00
2022-08-28T05:21:54.884Z,1416.00
2022-08-28T05:22:54.889Z,1464.00
2022-08-28T05:23:54.869Z,1516.00
2022-08-28T05:24:54.867Z,1568.00
2022-08-28T05:25:54.880Z,1624.00
2022-08-28T05:26:54.844Z,1668.00
2022-08-28T05:27:54.843Z,1708.00
2022-08-28T05:28:54.881Z,1744.00
2022-08-28T05:29:57.347Z,1776.00
2022-08-28T05:30:56.929Z,1808.00
2022-08-28T05:31:54.869Z,1828.00
2022-08-28T05:32:54.817Z,1852.00
2022-08-28T05:33:54.817Z,1876.00
2022-08-28T05:34:54.818Z,1900.00
2022-08-28T05:35:54.798Z,1948.00
2022-08-28T05:36:54.817Z,1996.00
2022-08-28T05:37:54.807Z,2060.00
2022-08-28T05:38:54.773Z,2148.00
2022-08-28T05:39:54.809Z,2224.00
2022-08-28T05:40:54.776Z,2284.00
2022-08-28T05:41:54.782Z,2356.00
2022-08-28T05:42:54.755Z,2436.00
2022-08-28T05:43:55.656Z,2512.00
2022-08-28T05:44:54.846Z,2584.00
2022-08-28T05:45:54.788Z,2652.00
2022-08-28T05:46:54.738Z,2728.00
2022-08-28T05:47:54.761Z,2820.00
2022-08-28T05:48:54.738Z,2972.00
2022-08-28T05:49:54.722Z,3060.00
2022-08-28T05:50:54.724Z,3132.00
2022-08-28T05:51:54.707Z,3276.00
2022-08-28T05:52:54.728Z,3456.00
2022-08-28T05:53:54.705Z,3600.00
2022-08-28T05:54:54.709Z,3784.00
2022-08-28T05:55:54.673Z,3992.00
2022-08-28T05:56:54.671Z,4220.00
2022-08-28T05:57:54.682Z,4480.00
2022-08-28T05:58:54.685Z,4676.00
2022-08-28T05:59:54.648Z,4848.00
2022-08-28T06:00:54.647Z,5036.00
2022-08-28T06:01:54.723Z,5224.00
2022-08-28T06:02:54.633Z,5408.00
2022-08-28T06:03:54.723Z,5588.00
2022-08-28T06:04:55.153Z,5776.00
2022-08-28T06:05:54.633Z,5932.00
2022-08-28T06:06:54.613Z,6064.00
2022-08-28T06:07:54.624Z,6184.00
2022-08-28T06:08:58.085Z,6348.00
2022-08-28T06:09:54.616Z,6504.00
2022-08-28T06:10:54.613Z,6696.00
2022-08-28T06:11:54.591Z,6820.00
2022-08-28T06:12:54.577Z,6904.00
2022-08-28T06:13:54.588Z,7012.00
2022-08-28T06:14:54.602Z,7136.00
2022-08-28T06:15:54.585Z,7300.00
2022-08-28T06:16:54.564Z,8180.00
2022-08-28T06:17:54.565Z,9568.00
2022-08-28T06:18:54.545Z,8792.00
2022-08-28T06:19:54.545Z,8536.00
2022-08-28T06:20:54.556Z,9688.00
2022-08-28T06:21:54.539Z,10344.00
2022-08-28T06:22:54.533Z,10196.00
2022-08-28T06:23:54.532Z,12880.00
2022-08-28T06:24:54.512Z,10336.00
2022-08-28T06:25:54.622Z,9308.00
2022-08-28T06:26:57.467Z,8260.00
2022-08-28T06:27:54.492Z,9504.00
2022-08-28T06:28:54.503Z,9100.00
2022-08-28T06:29:54.490Z,10192.00
2022-08-28T06:31:18.639Z,10240.00
2022-08-28T06:31:54.572Z,8644.00
2022-08-28T06:32:54.486Z,9232.00
2022-08-28T06:33:54.481Z,8736.00
2022-08-28T06:34:54.461Z,8672.00
2022-08-28T06:35:54.463Z,8496.00
2022-08-28T06:36:54.590Z,8860.00
2022-08-28T06:37:54.500Z,9772.00
2022-08-28T06:38:54.451Z,11244.00
2022-08-28T06:39:54.485Z,12808.00
2022-08-28T06:40:54.434Z,15040.00
2022-08-28T06:41:54.455Z,13632.00
2022-08-28T06:42:54.526Z,19520.00
2022-08-28T06:43:54.439Z,17152.00
2022-08-28T06:44:54.418Z,16768.00
2022-08-28T06:45:54.487Z,20896.00
2022-08-28T06:46:54.398Z,20704.00
2022-08-28T06:47:54.500Z,22112.00
2022-08-28T06:48:54.390Z,22144.00
2022-08-28T06:49:54.380Z,21888.00
2022-08-28T06:50:54.377Z,21792.00
2022-08-28T06:51:55.366Z,20096.00
2022-08-28T06:52:54.377Z,18592.00
2022-08-28T06:53:54.455Z,26656.00
2022-08-28T06:54:55.811Z,24672.00
2022-08-28T06:55:54.361Z,26880.00
2022-08-28T06:56:54.351Z,30144.00
2022-08-28T06:57:54.356Z,30400.00
2022-08-28T06:58:54.483Z,23360.00
2022-08-28T06:59:54.353Z,29056.00
2022-08-28T07:01:02.308Z,29344.00
2022-08-28T07:01:56.517Z,28384.00
2022-08-28T07:02:54.344Z,11928.00
2022-08-28T07:03:54.320Z,9348.00
2022-08-28T07:04:54.325Z,8724.00
2022-08-28T07:05:54.289Z,8544.00
2022-08-28T07:06:54.908Z,28896.00
2022-08-28T07:07:54.282Z,31648.00
2022-08-28T07:08:54.281Z,34784.00
2022-08-28T07:09:54.429Z,9828.00
2022-08-28T07:10:54.270Z,10688.00
2022-08-28T07:11:54.265Z,9464.00
2022-08-28T07:12:54.277Z,9792.00
2022-08-28T07:13:54.261Z,9284.00
2022-08-28T07:14:54.240Z,8520.00
2022-08-28T07:15:54.341Z,8184.00
2022-08-28T07:16:54.243Z,8448.00
2022-08-28T07:17:54.247Z,19456.00
2022-08-28T07:18:54.226Z,11124.00
2022-08-28T07:19:54.218Z,15936.00
2022-08-28T07:20:54.335Z,12028.00
2022-08-28T07:21:54.247Z,7076.00
2022-08-28T07:22:59.439Z,5696.00
2022-08-28T07:23:54.192Z,5228.00
2022-08-28T07:24:54.191Z,5100.00
2022-08-28T07:25:54.195Z,5440.00
2022-08-28T07:26:54.301Z,5804.00
2022-08-28T07:27:54.202Z,16416.00
2022-08-28T07:29:09.596Z,11432.00
2022-08-28T07:29:55.161Z,25120.00
2022-08-28T07:30:54.205Z,25984.00
2022-08-28T07:31:54.172Z,26176.00
2022-08-28T07:32:54.162Z,20928.00
2022-08-28T07:33:54.256Z,18144.00
2022-08-28T07:34:54.133Z,16448.00
2022-08-28T07:35:54.145Z,27200.00
2022-08-28T07:36:54.123Z,38016.00
2022-08-28T07:37:54.242Z,22272.00
2022-08-28T07:38:54.106Z,34080.00
2022-08-28T07:39:54.165Z,26304.00
2022-08-28T07:40:54.104Z,47840.00
2022-08-28T07:41:54.108Z,46112.00
2022-08-28T07:42:54.112Z,51296.00
2022-08-28T07:43:54.076Z,53120.00
2022-08-28T07:44:54.106Z,29408.00
2022-08-28T07:45:54.171Z,56608.00
2022-08-28T07:46:54.070Z,58400.00
2022-08-28T07:47:54.064Z,59424.00
2022-08-28T07:48:54.078Z,12992.00
2022-08-28T07:49:54.045Z,15372.00
2022-08-28T07:50:55.049Z,14984.00
2022-08-28T07:51:54.578Z,14068.00
2022-08-28T07:52:54.024Z,10524.00
2022-08-28T07:53:54.134Z,10124.00
2022-08-28T07:54:54.021Z,11032.00
2022-08-28T07:55:54.018Z,25088.00
2022-08-28T07:56:54.005Z,13088.00
2022-08-28T07:57:54.045Z,12028.00
2022-08-28T07:58:54.055Z,13136.00
2022-08-28T07:59:54.114Z,12760.00
2022-08-28T08:00:53.994Z,13792.00
2022-08-28T08:01:54.038Z,56064.00
2022-08-28T08:02:53.972Z,27168.00
2022-08-28T08:03:55.957Z,42688.00
2022-08-28T08:04:55.082Z,53984.00
2022-08-28T08:05:53.967Z,34112.00
2022-08-28T08:06:57.727Z,40672.00
2022-08-28T08:07:53.953Z,44960.00
2022-08-28T08:08:53.949Z,60672.00
2022-08-28T08:09:53.952Z,61888.00
2022-08-28T08:10:53.967Z,62272.00
2022-08-28T08:11:53.952Z,60128.00
2022-08-28T08:12:53.932Z,57056.00
2022-08-28T08:13:53.939Z,34688.00
2022-08-28T08:14:53.922Z,46304.00
2022-08-28T08:15:53.971Z,22592.00
2022-08-28T08:16:53.925Z,36384.00
2022-08-28T08:17:53.900Z,43264.00
2022-08-28T08:18:53.913Z,33120.00
2022-08-28T08:19:54.260Z,60000.00
2022-08-28T08:20:53.892Z,53376.00
2022-08-28T08:21:54.675Z,63328.00
2022-08-28T08:22:53.888Z,62208.00
2022-08-28T08:23:53.869Z,63040.00
2022-08-28T08:24:53.875Z,65824.00
2022-08-28T08:25:53.870Z,65024.00
2022-08-28T08:26:58.781Z,68032.00
2022-08-28T08:27:53.890Z,68416.00
2022-08-28T08:28:53.872Z,65696.00
2022-08-28T08:29:53.848Z,58496.00
2022-08-28T08:30:53.937Z,61216.00
2022-08-28T08:31:53.839Z,65408.00
2022-08-28T08:32:53.852Z,56896.00
2022-08-28T08:33:53.830Z,65792.00
2022-08-28T08:34:53.866Z,22976.00
2022-08-28T08:35:54.827Z,60640.00
2022-08-28T08:36:53.814Z,66880.00
2022-08-28T08:37:53.833Z,66816.00
2022-08-28T08:38:59.920Z,65312.00
2022-08-28T08:39:53.828Z,66624.00
2022-08-28T08:40:53.784Z,63872.00
2022-08-28T08:41:53.780Z,60992.00
2022-08-28T08:42:53.764Z,60576.00
2022-08-28T08:43:53.797Z,61504.00
2022-08-28T08:44:53.779Z,56544.00
2022-08-28T08:45:53.808Z,59296.00
2022-08-28T08:46:54.469Z,60064.00
2022-08-28T08:47:53.765Z,60128.00
2022-08-28T08:48:53.778Z,58880.00
2022-08-28T08:49:53.735Z,60544.00
2022-08-28T08:50:53.722Z,62048.00
2022-08-28T08:51:53.730Z,57824.00
2022-08-28T08:52:53.730Z,61312.00
2022-08-28T08:53:53.716Z,62592.00
2022-08-28T08:54:58.845Z,55392.00
2022-08-28T08:55:53.717Z,63072.00
2022-08-28T08:56:53.727Z,70432.00
2022-08-28T08:57:53.703Z,69472.00
2022-08-28T08:58:53.710Z,70272.00
2022-08-28T08:59:53.723Z,60896.00
2022-08-28T09:00:53.693Z,67136.00
2022-08-28T09:01:53.746Z,69536.00
2022-08-28T09:02:53.700Z,71360.00
2022-08-28T09:03:53.977Z,71552.00
2022-08-28T09:04:53.682Z,26752.00
2022-08-28T09:05:53.690Z,56288.00
2022-08-28T09:06:53.667Z,72960.00
2022-08-28T09:07:53.648Z,74112.00
2022-08-28T09:08:53.675Z,72160.00
2022-08-28T09:09:53.650Z,67232.00
2022-08-28T09:11:10.279Z,68960.00
2022-08-28T09:12:15.300Z,69504.00
2022-08-28T09:13:25.248Z,68832.00
2022-08-28T09:13:58.771Z,71488.00
2022-08-28T09:14:57.716Z,73824.00
2022-08-28T09:15:53.636Z,73056.00
2022-08-28T09:16:53.641Z,70016.00
2022-08-28T09:17:53.634Z,62912.00
2022-08-28T09:18:53.597Z,60896.00
2022-08-28T09:19:53.610Z,58464.00
2022-08-28T09:20:53.591Z,59904.00
2022-08-28T09:21:53.697Z,64032.00
2022-08-28T09:22:53.592Z,72672.00
2022-08-28T09:23:53.574Z,72960.00
2022-08-28T09:24:53.564Z,68256.00
2022-08-28T09:25:53.783Z,59616.00
2022-08-28T09:26:53.559Z,56800.00
2022-08-28T09:27:53.588Z,59072.00
2022-08-28T09:28:53.608Z,63808.00
2022-08-28T09:29:53.552Z,63968.00
2022-08-28T09:30:53.550Z,63168.00
2022-08-28T09:31:53.540Z,62208.00
2022-08-28T09:32:53.577Z,64544.00
2022-08-28T09:34:00.387Z,67872.00
2022-08-28T09:34:53.526Z,67616.00
2022-08-28T09:35:53.526Z,67808.00
2022-08-28T09:36:53.508Z,64608.00
2022-08-28T09:37:53.516Z,62560.00
2022-08-28T09:38:53.747Z,64960.00
2022-08-28T09:39:53.538Z,64928.00
2022-08-28T09:40:53.514Z,64032.00
2022-08-28T09:41:53.512Z,63232.00
2022-08-28T09:42:54.336Z,63616.00
2022-08-28T09:43:53.517Z,59168.00
2022-08-28T09:44:53.526Z,58144.00
2022-08-28T09:45:53.531Z,58272.00
2022-08-28T09:46:53.488Z,59328.00
2022-08-28T09:47:53.475Z,59584.00
2022-08-28T09:48:53.461Z,60160.00
2022-08-28T09:49:53.474Z,61728.00
2022-08-28T09:50:53.464Z,64064.00
2022-08-28T09:51:53.463Z,67264.00
2022-08-28T09:52:53.439Z,64800.00
2022-08-28T09:53:53.438Z,61408.00
2022-08-28T09:54:53.760Z,63904.00
2022-08-28T09:55:53.429Z,65824.00
2022-08-28T09:56:53.499Z,65824.00
2022-08-28T09:57:53.435Z,62976.00
2022-08-28T09:58:53.440Z,62656.00
2022-08-28T09:59:53.429Z,65024.00
2022-08-28T10:00:53.560Z,64352.00
2022-08-28T10:01:53.489Z,58720.00
2022-08-28T10:02:53.407Z,56640.00
2022-08-28T10:03:53.480Z,59776.00
2022-08-28T10:04:53.398Z,62464.00
2022-08-28T10:05:53.524Z,59584.00
2022-08-28T10:06:53.400Z,51488.00
2022-08-28T10:07:53.398Z,50560.00
2022-08-28T10:08:53.393Z,55712.00
2022-08-28T10:09:53.382Z,57920.00
2022-08-28T10:10:53.352Z,55392.00
2022-08-28T10:11:53.389Z,50208.00
2022-08-28T10:12:53.358Z,41792.00
2022-08-28T10:13:53.369Z,32896.00
2022-08-28T10:14:53.336Z,25760.00
2022-08-28T10:15:53.383Z,20160.00
2022-08-28T10:16:53.489Z,18720.00
2022-08-28T10:17:53.341Z,17888.00
2022-08-28T10:18:53.325Z,16896.00
2022-08-28T10:19:53.334Z,16352.00
2022-08-28T10:20:53.324Z,15840.00
2022-08-28T10:21:53.321Z,15228.00
2022-08-28T10:22:53.429Z,14744.00
2022-08-28T10:23:53.310Z,14640.00
2022-08-28T10:24:53.294Z,14320.00
2022-08-28T10:25:53.307Z,14176.00
2022-08-28T10:26:53.281Z,13936.00
2022-08-28T10:27:53.947Z,13676.00
2022-08-28T10:28:53.282Z,13512.00
2022-08-28T10:29:53.273Z,13380.00
2022-08-28T10:30:53.398Z,13168.00
2022-08-28T10:31:53.253Z,13028.00
2022-08-28T10:32:53.267Z,12748.00
2022-08-28T10:33:53.268Z,12616.00
2022-08-28T10:34:53.253Z,12464.00
2022-08-28T10:35:53.247Z,12384.00
2022-08-28T10:36:53.253Z,12252.00
2022-08-28T10:37:53.245Z,12204.00
2022-08-28T10:38:53.335Z,12044.00
2022-08-28T10:39:53.291Z,11968.00
2022-08-28T10:40:53.221Z,11844.00
2022-08-28T10:41:53.276Z,11780.00
2022-08-28T10:42:53.214Z,11756.00
2022-08-28T10:43:53.227Z,11760.00
2022-08-28T10:44:53.348Z,11772.00
2022-08-28T10:45:53.257Z,11824.00
2022-08-28T10:46:53.413Z,11784.00
2022-08-28T10:47:53.193Z,11748.00
2022-08-28T10:48:53.200Z,11488.00
2022-08-28T10:49:53.305Z,11404.00
2022-08-28T10:50:53.176Z,11324.00
2022-08-28T10:51:53.175Z,11256.00
2022-08-28T10:52:53.178Z,11176.00
2022-08-28T10:53:53.166Z,11096.00
2022-08-28T10:54:53.142Z,11040.00
2022-08-28T10:55:53.282Z,11032.00
2022-08-28T10:56:55.965Z,10968.00
2022-08-28T10:57:53.137Z,10912.00
2022-08-28T10:58:53.179Z,10884.00
2022-08-28T10:59:53.150Z,10832.00
2022-08-28T11:00:53.127Z,10764.00
2022-08-28T11:01:53.220Z,10684.00
2022-08-28T11:02:53.151Z,10612.00
2022-08-28T11:03:53.098Z,10508.00
2022-08-28T11:04:57.772Z,10408.00
2022-08-28T11:05:55.203Z,10360.00
2022-08-28T11:06:53.094Z,10348.00
2022-08-28T11:07:53.086Z,10344.00
2022-08-28T11:08:53.076Z,10412.00
2022-08-28T11:09:53.090Z,10300.00
2022-08-28T11:10:53.063Z,10296.00
2022-08-28T11:11:53.095Z,10268.00
2022-08-28T11:12:53.071Z,10344.00
2022-08-28T11:13:53.047Z,10356.00
2022-08-28T11:14:53.052Z,10320.00
2022-08-28T11:15:53.057Z,10272.00
2022-08-28T11:16:53.097Z,10220.00
2022-08-28T11:17:53.028Z,10172.00
2022-08-28T11:18:53.034Z,10112.00
2022-08-28T11:19:53.037Z,10092.00
2022-08-28T11:20:53.021Z,10048.00
2022-08-28T11:21:53.013Z,10056.00
2022-08-28T11:22:53.039Z,10016.00
2022-08-28T11:23:52.997Z,9988.00
2022-08-28T11:24:53.007Z,9912.00
2022-08-28T11:25:52.987Z,9920.00
2022-08-28T11:26:52.992Z,9816.00
2022-08-28T11:27:53.193Z,9764.00
2022-08-28T11:28:52.977Z,9716.00
2022-08-28T11:29:52.966Z,9668.00
2022-08-28T11:30:53.000Z,9664.00
2022-08-28T11:31:52.949Z,9644.00
2022-08-28T11:32:54.069Z,9660.00
2022-08-28T11:33:52.951Z,9604.00
2022-08-28T11:34:53.824Z,9628.00
2022-08-28T11:35:52.944Z,9596.00
2022-08-28T11:36:52.941Z,9508.00
2022-08-28T11:37:52.914Z,9456.00
2022-08-28T11:38:52.971Z,9368.00
2022-08-28T11:39:53.024Z,9312.00
2022-08-28T11:40:52.939Z,9220.00
2022-08-28T11:41:52.900Z,9132.00
2022-08-28T11:42:52.908Z,9044.00
2022-08-28T11:43:52.921Z,9000.00
2022-08-28T11:44:52.917Z,8908.00
2022-08-28T11:45:52.939Z,8848.00
2022-08-28T11:46:52.877Z,8780.00
2022-08-28T11:47:52.905Z,8700.00
2022-08-28T11:48:52.874Z,8636.00
2022-08-28T11:49:52.902Z,8572.00
2022-08-28T11:50:52.861Z,8512.00
2022-08-28T11:51:52.872Z,8444.00
2022-08-28T11:52:53.843Z,8372.00
2022-08-28T11:53:52.928Z,8296.00
2022-08-28T11:54:52.855Z,8236.00
2022-08-28T11:55:52.897Z,8176.00
2022-08-28T11:56:52.831Z,8120.00
2022-08-28T11:57:52.845Z,8064.00
2022-08-28T11:58:52.823Z,8004.00
2022-08-28T11:59:52.826Z,7940.00
2022-08-28T12:00:52.840Z,7944.00
2022-08-28T12:01:52.816Z,7824.00
2022-08-28T12:02:52.844Z,7776.00
2022-08-28T12:03:52.806Z,7784.00
2022-08-28T12:04:52.773Z,7660.00
2022-08-28T12:05:52.781Z,7636.00
2022-08-28T12:06:52.781Z,7564.00
2022-08-28T12:07:53.766Z,7524.00
2022-08-28T12:08:52.756Z,7480.00
2022-08-28T12:09:52.764Z,7428.00
2022-08-28T12:10:52.761Z,7456.00
2022-08-28T12:11:52.772Z,7364.00
2022-08-28T12:12:52.735Z,7284.00
2022-08-28T12:13:52.734Z,7252.00
2022-08-28T12:14:52.738Z,7204.00
2022-08-28T12:15:53.336Z,7176.00
2022-08-28T12:16:52.746Z,7140.00
2022-08-28T12:17:52.738Z,7092.00
2022-08-28T12:18:53.457Z,7112.00
2022-08-28T12:19:55.895Z,7036.00
2022-08-28T12:20:52.719Z,7004.00
2022-08-28T12:21:52.683Z,6952.00
2022-08-28T12:22:52.717Z,6944.00